Time;durP1;ratioP1;P1;durP2;ratioP2;P2;SDS_P1;SDS_P2;PMS_P1;PMS_P2;Temp;Humidity;BMP_temperature;BMP_pressure;BME280_temperature;BME280_humidity;BME280_pressure;Samples;Min_cycle;Max_cycle;Signal;HPM_P1;HPM_P2
2021/06/02 00:01:46;;;;;;;18.92;8.90;;;11.40;99.90;;;;;;5114132;28;20178;-83
2021/06/02 00:04:15;;;;;;;14.38;9.00;;;11.40;99.90;;;;;;5115746;28;20174;-84
2021/06/02 00:06:43;;;;;;;12.13;7.78;;;11.40;99.90;;;;;;5115149;28;20173;-85
2021/06/02 00:09:09;;;;;;;17.58;8.20;;;11.40;99.90;;;;;;5114138;28;20182;-85
2021/06/02 00:11:36;;;;;;;19.33;8.15;;;11.40;99.90;;;;;;5113523;28;20689;-82
2021/06/02 00:14:03;;;;;;;18.80;8.75;;;11.30;99.90;;;;;;5115415;28;20202;-82
2021/06/02 00:16:30;;;;;;;13.95;7.78;;;11.30;99.90;;;;;;5114756;28;20190;-83
2021/06/02 00:18:57;;;;;;;17.20;8.30;;;11.30;99.90;;;;;;5114998;28;20182;-83
2021/06/02 00:21:22;;;;;;;15.00;7.55;;;11.30;99.90;;;;;;5113684;28;20223;-84
2021/06/02 00:23:48;;;;;;;14.93;7.43;;;11.30;99.90;;;;;;5114555;28;20181;-83
2021/06/02 00:26:14;;;;;;;13.52;8.32;;;11.20;99.90;;;;;;5113410;28;20246;-84
2021/06/02 00:28:41;;;;;;;19.58;7.78;;;11.10;99.90;;;;;;5112908;28;20626;-83
2021/06/02 00:31:07;;;;;;;17.45;8.95;;;11.10;99.90;;;;;;5113346;28;20169;-83
2021/06/02 00:33:33;;;;;;;15.73;8.55;;;11.10;99.90;;;;;;5114233;28;20209;-83
2021/06/02 00:36:01;;;;;;;13.32;7.93;;;11.10;99.90;;;;;;5114594;28;20183;-83
2021/06/02 00:38:27;;;;;;;14.13;8.35;;;11.00;99.90;;;;;;5114660;28;20177;-83
2021/06/02 00:40:53;;;;;;;17.35;8.80;;;11.00;99.90;;;;;;5095968;28;20288;-83
2021/06/02 00:43:20;;;;;;;16.60;8.30;;;11.00;99.90;;;;;;5113307;28;20247;-83
2021/06/02 00:45:46;;;;;;;17.10;8.85;;;10.90;99.90;;;;;;5113025;28;20177;-83
2021/06/02 00:48:14;;;;;;;16.92;8.20;;;10.90;99.90;;;;;;5114153;28;20181;-83
2021/06/02 00:50:49;;;;;;;15.37;8.47;;;10.80;99.90;;;;;;5113990;28;20170;-83
2021/06/02 00:53:16;;;;;;;18.60;8.68;;;10.80;99.90;;;;;;5114452;28;20196;-84
2021/06/02 00:55:43;;;;;;;15.47;8.40;;;10.70;99.90;;;;;;5113964;28;20185;-83
2021/06/02 00:58:12;;;;;;;13.25;8.25;;;10.60;99.90;;;;;;5113159;28;20702;-85
2021/06/02 01:00:38;;;;;;;13.80;8.27;;;10.40;99.90;;;;;;5113890;28;20174;-85
2021/06/02 01:03:07;;;;;;;17.73;7.97;;;10.50;99.90;;;;;;5114405;28;20198;-83
2021/06/02 01:05:33;;;;;;;13.63;8.23;;;10.40;99.90;;;;;;5113782;28;20162;-82
2021/06/02 01:08:04;;;;;;;14.10;8.23;;;10.40;99.90;;;;;;5113910;28;20196;-84
2021/06/02 01:10:30;;;;;;;23.77;8.33;;;10.30;99.90;;;;;;5114034;28;20166;-83
2021/06/02 01:12:58;;;;;;;19.50;9.03;;;10.30;99.90;;;;;;5114166;28;20197;-84
2021/06/02 01:15:25;;;;;;;15.00;8.33;;;10.20;99.90;;;;;;5113353;28;20190;-84
2021/06/02 01:17:51;;;;;;;17.40;7.87;;;10.20;99.90;;;;;;5112312;28;20192;-83
2021/06/02 01:20:18;;;;;;;20.47;8.60;;;10.10;99.90;;;;;;5096005;28;20186;-83
2021/06/02 01:22:45;;;;;;;17.77;7.97;;;10.00;99.90;;;;;;5113945;28;20683;-83
2021/06/02 01:25:18;;;;;;;13.93;6.90;;;10.00;99.90;;;;;;5113847;28;20260;-84
2021/06/02 01:27:48;;;;;;;15.43;8.30;;;10.00;99.90;;;;;;5113535;28;20215;-84
2021/06/02 01:30:20;;;;;;;15.97;8.33;;;9.90;99.90;;;;;;5114013;28;20261;-84
2021/06/02 01:32:55;;;;;;;19.03;8.23;;;9.80;99.90;;;;;;5113481;28;20240;-84
2021/06/02 01:35:45;;;;;;;13.93;7.93;;;9.80;99.90;;;;;;5112931;28;20208;-84
2021/06/02 01:38:53;;;;;;;19.03;8.60;;;9.80;99.90;;;;;;5114228;28;20169;-84
2021/06/02 01:41:56;;;;;;;14.90;8.03;;;9.70;99.90;;;;;;5112686;28;20174;-84
2021/06/02 01:45:03;;;;;;;16.00;7.87;;;9.70;99.90;;;;;;5040810;28;20196;-84
2021/06/02 01:48:05;;;;;;;18.40;7.87;;;9.60;99.90;;;;;;5068317;28;20193;-85
2021/06/02 01:51:27;;;;;;;13.80;8.20;;;9.60;99.90;;;;;;5113705;27;20238;-84
2021/06/02 01:53:59;;;;;;;14.37;9.73;;;9.60;99.90;;;;;;5030519;28;20204;-83
2021/06/02 01:56:59;;;;;;;24.53;8.93;;;9.50;99.90;;;;;;5031335;28;20248;-82
2021/06/02 01:59:48;;;;;;;19.53;8.67;;;9.50;99.90;;;;;;5092026;28;20196;-83
2021/06/02 02:02:26;;;;;;;20.17;8.60;;;9.50;99.90;;;;;;5114313;28;20201;-84
2021/06/02 02:05:23;;;;;;;18.73;9.23;;;9.50;99.90;;;;;;5114583;28;20165;-83
2021/06/02 02:08:32;;;;;;;14.07;8.90;;;9.40;99.90;;;;;;5113624;28;20173;-83
2021/06/02 02:11:08;;;;;;;17.03;8.50;;;9.50;99.90;;;;;;5113136;28;20535;-83
2021/06/02 02:13:53;;;;;;;14.53;9.70;;;9.60;99.90;;;;;;5113878;28;20223;-83
2021/06/02 02:16:47;;;;;;;19.20;8.83;;;9.60;99.90;;;;;;5113645;28;20170;-83
2021/06/02 02:19:13;;;;;;;12.93;7.70;;;;;;;;;;5113656;28;20606;-83
2021/06/02 02:21:40;;;;;;;17.57;9.10;;;9.70;99.90;;;;;;5113623;28;20258;-83
2021/06/02 02:24:11;;;;;;;15.10;8.67;;;9.70;99.90;;;;;;5113246;28;20186;-83
2021/06/02 02:26:59;;;;;;;19.10;9.60;;;9.60;99.90;;;;;;5114636;28;20174;-83
2021/06/02 02:29:36;;;;;;;16.00;9.43;;;9.60;99.90;;;;;;5115811;28;20269;-84
2021/06/02 02:32:43;;;;;;;21.93;9.37;;;9.70;99.90;;;;;;5117222;28;20650;-83
2021/06/02 02:35:24;;;;;;;27.67;9.87;;;9.70;99.90;;;;;;5116270;28;20374;-83
2021/06/02 02:38:06;;;;;;;19.83;10.37;;;9.80;99.90;;;;;;5116953;28;20245;-83
2021/06/02 02:41:15;;;;;;;15.83;9.33;;;9.80;99.90;;;;;;5117127;28;20165;-83
2021/06/02 02:44:07;;;;;;;18.13;9.30;;;9.80;99.90;;;;;;5085547;28;20338;-83
2021/06/02 02:46:33;;;;;;;16.73;9.50;;;9.90;99.90;;;;;;5117213;28;20162;-83
2021/06/02 02:49:44;;;;;;;17.07;9.93;;;10.00;99.90;;;;;;5116368;28;20177;-83
2021/06/02 02:52:34;;;;;;;17.13;9.77;;;10.00;99.90;;;;;;5115748;28;20273;-83
2021/06/02 02:55:13;;;;;;;18.30;9.53;;;10.00;99.90;;;;;;5116331;28;20200;-82
2021/06/02 02:57:59;;;;;;;22.77;10.03;;;10.10;99.90;;;;;;5116916;28;20169;-84
2021/06/02 03:00:33;;;;;;;21.73;9.03;;;10.10;99.90;;;;;;5117116;28;20205;-84
2021/06/02 03:03:23;;;;;;;22.50;9.17;;;10.00;99.90;;;;;;5116566;28;20224;-86
2021/06/02 03:06:11;;;;;;;14.10;8.10;;;10.00;99.90;;;;;;5115320;28;20177;-83
2021/06/02 03:09:04;;;;;;;14.70;9.20;;;10.10;99.90;;;;;;5116711;28;20166;-83
2021/06/02 03:11:51;;;;;;;18.47;8.33;;;10.10;99.90;;;;;;5116378;28;20228;-84
2021/06/02 03:14:34;;;;;;;15.53;8.23;;;10.20;99.90;;;;;;5115630;28;20260;-84
2021/06/02 03:17:11;;;;;;;15.93;8.27;;;10.30;99.90;;;;;;5115724;28;20260;-84
2021/06/02 03:20:07;;;;;;;13.90;7.90;;;10.40;99.90;;;;;;5116878;28;20158;-84
2021/06/02 03:23:01;;;;;;;18.57;7.73;;;10.40;99.90;;;;;;5116579;28;20170;-83
2021/06/02 03:25:27;;;;;;;13.97;7.73;;;10.40;99.90;;;;;;5116340;28;20174;-84
2021/06/02 03:28:30;;;;;;;12.63;7.67;;;10.50;99.90;;;;;;5114777;28;20182;-84
2021/06/02 03:31:25;;;;;;;11.17;6.70;;;10.50;99.90;;;;;;5115936;28;20165;-85
2021/06/02 03:34:02;;;;;;;16.77;7.30;;;10.60;99.90;;;;;;5115816;28;20202;-84
2021/06/02 03:36:50;;;;;;;13.47;7.30;;;10.60;99.90;;;;;;5114338;28;20197;-84
2021/06/02 03:39:44;;;;;;;15.67;6.90;;;10.70;99.90;;;;;;5101577;28;20185;-84
2021/06/02 03:42:39;;;;;;;11.97;6.40;;;10.80;99.90;;;;;;5104838;28;20239;-82
2021/06/02 03:45:38;;;;;;;10.93;6.70;;;10.80;99.90;;;;;;5087619;28;20244;-83
2021/06/02 03:48:35;;;;;;;10.50;6.50;;;10.90;99.90;;;;;;5110777;28;20235;-83
2021/06/02 03:51:31;;;;;;;11.70;6.87;;;11.00;99.90;;;;;;5110898;28;20269;-83
2021/06/02 03:54:11;;;;;;;12.83;6.53;;;11.00;99.90;;;;;;5113493;28;20221;-83
2021/06/02 03:57:15;;;;;;;12.83;6.00;;;11.10;99.90;;;;;;5107916;28;20182;-83
2021/06/02 04:00:03;;;;;;;9.60;5.20;;;11.20;99.90;;;;;;5109827;28;20182;-83
2021/06/02 04:02:51;;;;;;;7.90;4.93;;;11.30;99.90;;;;;;5106106;28;20186;-83
2021/06/02 04:05:25;;;;;;;7.13;4.57;;;11.30;99.90;;;;;;5113271;28;20269;-83
2021/06/02 04:08:00;;;;;;;8.95;5.25;;;11.40;99.90;;;;;;5112447;28;20185;-82
2021/06/02 04:10:46;;;;;;;13.05;5.30;;;11.50;99.90;;;;;;5113325;28;20199;-84
2021/06/02 04:13:12;;;;;;;6.90;4.40;;;11.50;99.90;;;;;;5113647;28;20208;-84
2021/06/02 04:15:47;;;;;;;8.00;4.82;;;11.70;99.90;;;;;;5114066;28;20260;-83
2021/06/02 04:18:14;;;;;;;8.85;4.70;;;11.70;99.90;;;;;;5113584;28;20177;-84
2021/06/02 04:20:43;;;;;;;7.97;4.15;;;11.80;99.90;;;;;;5104906;28;20278;-83
2021/06/02 04:23:09;;;;;;;5.80;4.32;;;11.80;99.90;;;;;;5106885;28;20174;-84
2021/06/02 04:25:37;;;;;;;8.07;4.88;;;11.80;99.90;;;;;;5093243;28;20247;-83
2021/06/02 04:28:03;;;;;;;10.00;4.50;;;11.90;99.90;;;;;;5093065;28;20249;-85
2021/06/02 04:30:33;;;;;;;9.77;4.70;;;12.00;99.90;;;;;;5092733;28;20227;-84
2021/06/02 04:33:00;;;;;;;8.88;4.13;;;12.10;99.90;;;;;;5102961;28;20608;-84
2021/06/02 04:35:26;;;;;;;12.73;4.68;;;12.20;99.90;;;;;;5111387;28;20186;-85
2021/06/02 04:37:54;;;;;;;5.47;4.15;;;12.30;99.90;;;;;;5109243;28;20250;-85
2021/06/02 04:40:20;;;;;;;8.35;4.00;;;12.30;99.90;;;;;;5111390;28;20256;-84
2021/06/02 04:42:46;;;;;;;6.50;4.15;;;12.50;99.90;;;;;;5111706;28;20339;-84
2021/06/02 04:45:29;;;;;;;7.55;4.22;;;12.40;99.90;;;;;;5112493;28;20193;-84
2021/06/02 04:47:57;;;;;;;8.00;3.75;;;12.50;99.90;;;;;;5112215;28;20218;-82
2021/06/02 04:50:37;;;;;;;7.80;4.43;;;12.60;99.90;;;;;;5110289;28;20178;-84
2021/06/02 04:53:09;;;;;;;10.13;4.05;;;12.70;99.90;;;;;;5111984;28;20345;-84
2021/06/02 04:56:18;;;;;;;10.88;4.38;;;12.80;99.90;;;;;;5111018;28;20664;-83
2021/06/02 04:59:19;;;;;;;6.88;3.88;;;12.90;99.90;;;;;;5112215;28;20166;-84
2021/06/02 05:02:22;;;;;;;9.50;3.72;;;13.00;99.90;;;;;;5092565;28;20212;-83
2021/06/02 05:04:56;;;;;;;7.65;4.20;;;13.10;99.90;;;;;;5111369;28;20685;-84
2021/06/02 05:07:59;;;;;;;6.18;3.70;;;13.20;99.90;;;;;;5111704;28;20173;-82
2021/06/02 05:11:09;;;;;;;6.60;3.70;;;13.30;99.90;;;;;;5109664;28;20630;-83
2021/06/02 05:14:05;;;;;;;5.85;3.60;;;13.40;99.90;;;;;;5109998;28;20194;-83
2021/06/02 05:16:55;;;;;;;11.63;3.80;;;13.50;99.90;;;;;;5108032;28;20545;-83
2021/06/02 05:20:01;;;;;;;4.88;3.72;;;14.00;99.90;;;;;;5108646;28;20211;-83
2021/06/02 05:22:42;;;;;;;7.13;4.22;;;13.80;99.90;;;;;;5110585;28;20203;-84
2021/06/02 05:25:27;;;;;;;5.18;3.55;;;14.40;99.90;;;;;;5113632;28;20190;-84
2021/06/02 05:28:23;;;;;;;8.30;3.78;;;14.30;99.90;;;;;;5110769;28;20158;-83
2021/06/02 05:31:13;;;;;;;5.53;3.30;;;14.50;99.90;;;;;;5112080;28;20221;-83
2021/06/02 05:34:01;;;;;;;6.80;3.45;;;14.60;99.90;;;;;;5113482;28;20196;-82
2021/06/02 05:36:57;;;;;;;11.60;3.78;;;14.80;99.90;;;;;;5112433;28;20587;-82
2021/06/02 05:39:53;;;;;;;9.20;3.80;;;14.90;99.90;;;;;;5113364;28;20173;-83
2021/06/02 05:42:56;;;;;;;10.18;3.80;;;15.10;99.90;;;;;;5113114;28;20381;-83
2021/06/02 05:46:02;;;;;;;6.10;3.47;;;15.20;99.90;;;;;;5108584;28;20200;-82
2021/06/02 05:48:42;;;;;;;6.57;3.90;;;15.30;99.90;;;;;;5112728;28;20174;-82
2021/06/02 05:51:23;;;;;;;11.43;4.10;;;15.30;99.90;;;;;;5113753;28;20162;-83
2021/06/02 05:54:17;;;;;;;16.95;4.88;;;15.20;99.90;;;;;;5112006;28;20608;-83
2021/06/02 05:56:58;;;;;;;19.13;4.75;;;15.20;99.90;;;;;;5104714;28;20272;-83
2021/06/02 05:59:46;;;;;;;19.08;5.60;;;15.20;99.90;;;;;;5112927;28;20159;-83
2021/06/02 06:02:42;;;;;;;14.32;4.65;;;15.20;99.90;;;;;;5115009;28;20154;-83
2021/06/02 06:05:16;;;;;;;10.40;5.10;;;15.10;99.90;;;;;;5116494;28;20187;-82
2021/06/02 06:08:05;;;;;;;13.15;4.72;;;15.20;99.90;;;;;;5116633;28;20173;-82
2021/06/02 06:11:10;;;;;;;11.07;5.63;;;15.20;99.90;;;;;;5116831;28;20161;-82
2021/06/02 06:14:00;;;;;;;6.65;3.90;;;15.20;99.90;;;;;;5116657;28;20194;-82
2021/06/02 06:16:40;;;;;;;10.13;3.83;;;15.20;99.90;;;;;;5116411;27;20177;-83
2021/06/02 06:19:51;;;;;;;7.97;3.08;;;15.20;99.90;;;;;;5116738;28;20166;-82
2021/06/02 06:22:46;;;;;;;5.10;2.75;;;15.30;99.90;;;;;;5116060;28;20641;-83
2021/06/02 06:25:16;;;;;;;14.88;2.78;;;15.50;99.90;;;;;;5116019;27;20527;-82
2021/06/02 06:27:55;;;;;;;4.50;2.80;;;15.60;99.90;;;;;;5116445;28;20240;-82
2021/06/02 06:30:25;;;;;;;5.65;2.40;;;15.50;99.90;;;;;;5116238;28;20669;-82
2021/06/02 06:32:53;;;;;;;8.82;3.05;;;15.70;99.90;;;;;;5116061;28;20280;-82
2021/06/02 06:35:21;;;;;;;11.00;2.75;;;15.80;99.90;;;;;;5116118;28;20189;-81
2021/06/02 06:37:52;;;;;;;7.63;2.90;;;15.80;99.90;;;;;;5116461;28;20174;-81
2021/06/02 06:40:24;;;;;;;5.38;2.85;;;15.90;99.90;;;;;;5116347;28;20181;-82
2021/06/02 06:42:53;;;;;;;5.30;2.42;;;16.00;99.90;;;;;;5116453;28;20174;-82
2021/06/02 06:45:32;;;;;;;7.25;3.00;;;16.10;99.90;;;;;;5116126;28;20223;-82
2021/06/02 06:48:09;;;;;;;5.78;3.05;;;16.20;99.90;;;;;;5114979;28;20158;-82
2021/06/02 06:50:35;;;;;;;7.97;2.92;;;16.10;99.90;;;;;;5116223;28;20218;-82
2021/06/02 06:53:06;;;;;;;5.78;3.10;;;16.20;99.90;;;;;;5115987;28;20210;-83
2021/06/02 06:55:32;;;;;;;10.02;2.83;;;16.40;99.90;;;;;;5116084;28;20181;-83
2021/06/02 06:57:58;;;;;;;9.52;2.85;;;16.40;99.20;;;;;;5116139;28;20623;-84
2021/06/02 07:00:25;;;;;;;3.35;2.28;;;16.50;99.70;;;;;;5114924;28;20173;-83
2021/06/02 07:02:51;;;;;;;7.90;2.65;;;16.70;97.90;;;;;;5115338;28;20174;-84
2021/06/02 07:05:19;;;;;;;3.67;2.60;;;16.90;97.90;;;;;;5115057;28;20186;-82
2021/06/02 07:07:45;;;;;;;3.30;2.45;;;17.00;96.30;;;;;;5115434;28;20642;-85
2021/06/02 07:10:13;;;;;;;3.15;2.70;;;17.30;96.30;;;;;;5116711;28;20178;-83
2021/06/02 07:12:43;;;;;;;4.50;2.60;;;17.30;96.50;;;;;;5113991;28;20230;-83
2021/06/02 07:15:11;;;;;;;8.07;2.75;;;17.40;94.80;;;;;;5114492;28;20166;-83
2021/06/02 07:17:45;;;;;;;4.28;2.50;;;17.70;94.90;;;;;;5114002;28;20315;-83
2021/06/02 07:20:15;;;;;;;9.43;3.38;;;17.70;94.60;;;;;;5113823;28;20166;-82
2021/06/02 07:22:45;;;;;;;4.28;2.90;;;17.70;94.30;;;;;;5114886;28;20213;-83
2021/06/02 07:25:14;;;;;;;9.73;2.78;;;17.90;94.70;;;;;;5114134;28;20539;-81
2021/06/02 07:27:40;;;;;;;6.28;2.63;;;17.90;94.20;;;;;;5115166;28;20174;-82
2021/06/02 07:30:06;;;;;;;5.38;2.78;;;18.00;92.50;;;;;;5113688;28;20289;-80
2021/06/02 07:32:32;;;;;;;5.38;2.40;;;18.00;92.20;;;;;;5113659;28;20229;-81
2021/06/02 07:34:58;;;;;;;8.48;2.63;;;18.00;93.00;;;;;;5114722;28;20183;-81
2021/06/02 07:37:23;;;;;;;3.97;2.50;;;18.20;93.60;;;;;;5098886;28;20182;-81
2021/06/02 07:39:49;;;;;;;5.15;2.60;;;18.20;92.20;;;;;;5102009;28;20182;-80
2021/06/02 07:42:15;;;;;;;4.72;3.15;;;18.30;93.70;;;;;;5116468;28;20302;-80
2021/06/02 07:44:41;;;;;;;5.22;2.70;;;18.30;93.00;;;;;;5115362;28;20252;-81
2021/06/02 07:47:06;;;;;;;7.55;3.05;;;18.30;92.10;;;;;;5131221;27;20199;-81
2021/06/02 07:49:32;;;;;;;4.43;3.05;;;18.20;93.10;;;;;;5114822;28;20959;-81
2021/06/02 07:52:00;;;;;;;7.28;3.60;;;18.20;94.90;;;;;;5114047;28;20178;-82
2021/06/02 07:54:27;;;;;;;4.75;2.83;;;18.30;96.00;;;;;;5114743;28;20212;-82
2021/06/02 07:56:53;;;;;;;7.85;3.08;;;18.50;92.30;;;;;;5114087;28;20693;-81
2021/06/02 07:59:18;;;;;;;9.30;2.40;;;18.50;92.50;;;;;;5114946;28;20670;-81
2021/06/02 08:01:46;;;;;;;4.78;2.78;;;18.50;90.50;;;;;;5114928;28;20207;-81
2021/06/02 08:04:12;;;;;;;6.53;3.15;;;18.50;90.20;;;;;;5115185;28;20174;-80
2021/06/02 08:06:38;;;;;;;6.70;3.53;;;18.60;91.60;;;;;;5113493;28;20186;-80
2021/06/02 08:09:04;;;;;;;6.38;2.10;;;18.80;90.10;;;;;;5113984;28;20189;-81
2021/06/02 08:11:30;;;;;;;5.72;2.45;;;19.00;77.30;;;;;;5114446;28;20232;-82
2021/06/02 08:13:56;;;;;;;4.05;2.20;;;19.10;76.90;;;;;;5114913;28;20297;-82
2021/06/02 08:16:21;;;;;;;4.15;2.17;;;19.10;80.70;;;;;;5113095;28;20174;-82
2021/06/02 08:18:47;;;;;;;2.63;2.30;;;19.30;80.90;;;;;;5131080;27;20170;-81
2021/06/02 08:21:13;;;;;;;6.00;2.30;;;19.40;78.00;;;;;;5114616;28;20231;-81
2021/06/02 08:23:39;;;;;;;6.80;2.10;;;19.40;77.60;;;;;;5114170;28;20178;-82
2021/06/02 08:26:05;;;;;;;2.38;1.70;;;19.40;77.30;;;;;;5113966;28;20252;-81
2021/06/02 08:28:32;;;;;;;3.63;2.30;;;19.30;73.60;;;;;;5117359;28;20197;-82
2021/06/02 08:30:58;;;;;;;5.40;2.10;;;19.00;75.10;;;;;;5130051;28;20183;-83
2021/06/02 08:33:24;;;;;;;4.05;1.80;;;18.70;77.60;;;;;;5131549;28;20206;-81
2021/06/02 08:35:49;;;;;;;5.72;1.80;;;18.50;77.10;;;;;;5130488;28;20174;-82
2021/06/02 08:38:15;;;;;;;5.38;2.30;;;18.30;76.60;;;;;;5133529;28;20248;-82
2021/06/02 08:40:41;;;;;;;4.25;2.55;;;;;;;;;;5117579;28;20182;-82
2021/06/02 08:43:07;;;;;;;3.35;2.03;;;18.30;72.60;;;;;;5114588;28;20182;-82
2021/06/02 08:45:33;;;;;;;2.95;1.88;;;18.30;73.70;;;;;;5113758;28;20166;-82
2021/06/02 08:47:59;;;;;;;3.17;1.70;;;18.50;77.20;;;;;;5114726;28;20508;-82
2021/06/02 08:50:25;;;;;;;8.60;2.30;;;18.50;70.50;;;;;;5112666;28;20182;-82
2021/06/02 08:52:51;;;;;;;5.97;1.75;;;18.50;71.50;;;;;;5113827;28;20216;-82
2021/06/02 08:55:20;;;;;;;10.45;2.20;;;18.30;71.50;;;;;;5113867;28;20535;-82
2021/06/02 08:57:48;;;;;;;5.10;2.10;;;18.30;71.90;;;;;;5114122;28;20173;-81
2021/06/02 09:00:16;;;;;;;3.85;1.60;;;18.40;71.30;;;;;;5114118;28;20166;-81
2021/06/02 09:02:45;;;;;;;3.28;1.90;;;18.80;72.40;;;;;;5113517;28;20190;-83
2021/06/02 09:05:11;;;;;;;2.70;1.80;;;19.40;74.20;;;;;;5114269;28;20264;-83
2021/06/02 09:07:40;;;;;;;7.70;2.17;;;19.80;69.60;;;;;;5112245;28;20588;-83
2021/06/02 09:10:10;;;;;;;3.88;1.55;;;19.90;67.50;;;;;;5113905;28;20178;-82
2021/06/02 09:12:41;;;;;;;4.35;1.83;;;19.70;65.70;;;;;;5113667;28;20256;-82
2021/06/02 09:15:16;;;;;;;6.38;1.65;;;19.60;65.30;;;;;;5113931;28;20257;-81
2021/06/02 09:17:59;;;;;;;2.45;1.85;;;19.70;59.30;;;;;;5113513;28;20178;-82
2021/06/02 09:20:46;;;;;;;8.27;1.60;;;19.80;58.80;;;;;;5113640;28;20165;-82
2021/06/02 09:23:34;;;;;;;4.00;2.13;;;19.70;62.60;;;;;;5113960;28;20673;-83
2021/06/02 09:26:12;;;;;;;4.40;2.53;;;19.90;63.00;;;;;;5113525;28;20223;-82
2021/06/02 09:28:59;;;;;;;6.00;2.08;;;20.10;65.90;;;;;;5113542;28;20719;-83
2021/06/02 09:31:39;;;;;;;2.55;1.70;;;20.20;63.90;;;;;;5113782;28;20165;-81
2021/06/02 09:34:23;;;;;;;6.00;1.98;;;20.40;60.30;;;;;;5112237;28;20201;-82
2021/06/02 09:37:02;;;;;;;6.55;1.80;;;20.50;59.00;;;;;;5112838;27;20170;-81
2021/06/02 09:39:28;;;;;;;4.18;1.83;;;20.30;56.20;;;;;;5112144;28;20174;-82
2021/06/02 09:42:00;;;;;;;2.35;1.90;;;20.00;57.50;;;;;;5113540;28;20174;-82
2021/06/02 09:44:29;;;;;;;4.03;1.58;;;19.70;61.00;;;;;;5113008;28;20166;-83
2021/06/02 09:47:06;;;;;;;7.35;5.05;;;19.80;60.70;;;;;;5112364;28;20178;-82
2021/06/02 09:49:56;;;;;;;3.85;2.60;;;19.90;55.40;;;;;;5112065;28;20675;-82
2021/06/02 09:52:41;;;;;;;5.65;1.92;;;19.80;56.90;;;;;;5113180;28;20166;-83
2021/06/02 09:55:11;;;;;;;3.80;1.63;;;19.70;59.20;;;;;;5112308;28;20336;-81
2021/06/02 09:57:36;;;;;;;7.47;2.17;;;19.50;56.30;;;;;;5109988;28;20185;-82
2021/06/02 10:00:04;;;;;;;5.28;1.75;;;19.30;57.60;;;;;;5112068;28;20261;-84
2021/06/02 10:02:29;;;;;;;2.85;1.70;;;19.20;56.70;;;;;;5111992;28;20170;-81
2021/06/02 10:05:11;;;;;;;5.40;1.90;;;19.10;58.20;;;;;;5112374;28;20170;-82
2021/06/02 10:07:45;;;;;;;2.35;1.48;;;19.10;56.90;;;;;;5109701;28;20252;-83
2021/06/02 10:10:18;;;;;;;2.88;1.90;;;19.00;57.70;;;;;;5112017;28;20166;-82
2021/06/02 10:12:57;;;;;;;4.55;1.63;;;19.10;57.70;;;;;;5111593;28;20652;-83
2021/06/02 10:15:29;;;;;;;5.03;1.77;;;19.10;57.50;;;;;;5110724;28;20180;-83
2021/06/02 10:17:55;;;;;;;2.72;1.70;;;19.10;58.70;;;;;;5112064;28;20174;-82
2021/06/02 10:20:21;;;;;;;5.43;1.98;;;19.10;59.50;;;;;;5093864;28;20174;-81
2021/06/02 10:22:52;;;;;;;5.85;1.85;;;19.00;59.70;;;;;;5110779;28;20178;-82
2021/06/02 10:25:20;;;;;;;3.10;2.08;;;19.00;60.00;;;;;;5108266;28;20170;-82
2021/06/02 10:27:48;;;;;;;4.35;1.50;;;18.90;59.40;;;;;;5112192;28;20178;-82
2021/06/02 10:30:14;;;;;;;5.88;1.90;;;18.90;61.30;;;;;;5112493;28;20166;-82
2021/06/02 10:32:41;;;;;;;6.40;1.88;;;19.00;60.30;;;;;;5111978;28;20224;-82
2021/06/02 10:35:07;;;;;;;5.35;1.63;;;19.00;59.60;;;;;;5087331;28;20281;-82
2021/06/02 10:37:39;;;;;;;3.78;1.73;;;19.00;60.20;;;;;;5110929;28;20207;-81
2021/06/02 10:40:09;;;;;;;2.72;1.63;;;19.10;60.10;;;;;;5112689;28;20158;-82
2021/06/02 10:42:59;;;;;;;5.05;1.75;;;19.20;60.60;;;;;;5112575;28;20581;-81
2021/06/02 10:45:29;;;;;;;4.13;2.30;;;19.20;58.90;;;;;;5110675;28;20162;-83
2021/06/02 10:48:00;;;;;;;2.05;1.85;;;19.20;58.40;;;;;;5112851;28;20174;-81
2021/06/02 10:50:36;;;;;;;9.30;2.20;;;19.20;59.00;;;;;;5116207;28;20230;-83
2021/06/02 10:53:28;;;;;;;4.30;2.95;;;19.30;60.70;;;;;;5115020;28;20205;-82
2021/06/02 10:55:59;;;;;;;9.98;3.63;;;19.40;58.40;;;;;;5114774;28;20177;-80
2021/06/02 10:58:29;;;;;;;25.58;12.60;;;19.90;59.90;;;;;;5115918;28;20178;-83
2021/06/02 11:01:06;;;;;;;5.25;2.67;;;20.60;61.70;;;;;;5116097;28;20256;-84
2021/06/02 11:03:37;;;;;;;4.35;1.90;;;20.90;52.80;;;;;;5113468;28;20265;-83
2021/06/02 11:06:15;;;;;;;9.75;2.38;;;20.70;54.30;;;;;;5115053;28;20159;-82
2021/06/02 11:09:06;;;;;;;3.05;1.75;;;20.70;55.70;;;;;;5115985;28;20276;-83
2021/06/02 11:11:43;;;;;;;3.55;2.00;;;19.40;55.00;;;;;;5128014;27;20243;-83
2021/06/02 11:16:43;;;;;;;3.45;1.83;;;20.10;57.30;;;;;;5115301;28;20539;-83
2021/06/02 11:19:14;;;;;;;4.35;2.08;;;19.80;57.70;;;;;;5114766;28;20200;-82
2021/06/02 11:21:55;;;;;;;6.97;1.83;;;19.60;57.70;;;;;;5097168;28;20180;-83
2021/06/02 11:24:34;;;;;;;9.75;1.90;;;19.60;57.50;;;;;;5114209;28;20774;-84
2021/06/02 11:27:12;;;;;;;4.63;1.52;;;19.50;57.30;;;;;;5115338;28;20181;-83
2021/06/02 11:29:50;;;;;;;5.03;1.60;;;19.40;56.20;;;;;;5115006;28;20174;-83
2021/06/02 11:32:29;;;;;;;5.85;1.75;;;19.30;57.30;;;;;;5114294;28;20174;-83
2021/06/02 11:35:05;;;;;;;4.90;1.83;;;19.30;56.90;;;;;;5113578;28;20649;-83
2021/06/02 11:37:38;;;;;;;1.70;1.25;;;19.30;58.70;;;;;;5114288;28;20165;-83
2021/06/02 11:40:05;;;;;;;3.22;1.60;;;19.50;57.10;;;;;;5097741;28;20253;-82
2021/06/02 11:42:35;;;;;;;3.90;1.80;;;19.70;57.80;;;;;;5115127;28;20177;-83
2021/06/02 11:45:07;;;;;;;2.22;1.33;;;20.00;57.10;;;;;;5110159;28;20174;-83
2021/06/02 11:47:34;;;;;;;3.33;1.67;;;20.30;57.10;;;;;;5114641;28;20169;-83
2021/06/02 11:50:09;;;;;;;2.65;1.25;;;20.70;55.90;;;;;;5117303;28;20226;-81
2021/06/02 11:52:36;;;;;;;4.47;1.73;;;20.90;53.70;;;;;;5113061;28;20636;-82
2021/06/02 11:55:08;;;;;;;5.70;1.90;;;21.30;55.60;;;;;;5114648;28;20177;-81
2021/06/02 11:57:38;;;;;;;5.38;1.80;;;21.20;53.50;;;;;;5112029;28;20170;-83
2021/06/02 12:00:16;;;;;;;2.20;1.50;;;21.10;51.80;;;;;;5114518;28;20629;-82
2021/06/02 12:02:43;;;;;;;4.22;1.60;;;20.80;52.30;;;;;;5113455;28;20169;-82
2021/06/02 12:05:25;;;;;;;2.78;1.85;;;20.50;52.90;;;;;;5114740;28;20177;-82
2021/06/02 12:08:04;;;;;;;3.85;1.35;;;20.30;53.20;;;;;;5112708;28;20180;-82
2021/06/02 12:10:36;;;;;;;5.63;1.50;;;20.50;53.40;;;;;;5112374;28;20181;-83
2021/06/02 12:13:04;;;;;;;2.78;1.45;;;20.40;51.80;;;;;;5113778;28;20296;-84
2021/06/02 12:15:52;;;;;;;2.20;1.60;;;20.60;55.80;;;;;;5114500;28;20174;-83
2021/06/02 12:18:43;;;;;;;6.13;1.90;;;20.50;53.10;;;;;;5113440;28;20162;-83
2021/06/02 12:21:19;;;;;;;3.47;1.67;;;20.40;53.10;;;;;;5112038;28;20178;-83
2021/06/02 12:23:54;;;;;;;2.22;1.50;;;20.30;54.50;;;;;;5113243;28;20162;-82
2021/06/02 12:26:29;;;;;;;2.58;1.42;;;20.10;53.80;;;;;;5113129;28;20174;-83
2021/06/02 12:28:57;;;;;;;6.50;1.40;;;20.10;53.80;;;;;;5112507;28;20165;-82
2021/06/02 12:31:31;;;;;;;7.72;2.00;;;20.40;53.40;;;;;;5114139;28;20249;-83
2021/06/02 12:34:07;;;;;;;4.38;1.45;;;20.60;52.70;;;;;;5113419;28;20224;-83
2021/06/02 12:36:33;;;;;;;2.45;1.38;;;20.70;51.20;;;;;;5113161;28;20173;-84
2021/06/02 12:39:08;;;;;;;6.15;3.25;;;20.70;52.90;;;;;;5113637;28;20227;-82
2021/06/02 12:41:34;;;;;;;3.50;1.98;;;20.90;52.10;;;;;;5113849;28;20538;-83
2021/06/02 12:44:04;;;;;;;2.90;1.27;;;20.90;50.50;;;;;;5113699;28;20189;-83
2021/06/02 12:46:31;;;;;;;1.77;1.63;;;20.80;51.50;;;;;;5113416;28;20260;-83
2021/06/02 12:48:56;;;;;;;3.83;1.48;;;21.00;50.60;;;;;;5113635;28;20190;-83
2021/06/02 12:51:24;;;;;;;3.13;1.50;;;21.00;51.20;;;;;;5113979;28;20265;-83
2021/06/02 12:53:51;;;;;;;2.03;1.40;;;21.10;51.30;;;;;;5109687;28;20677;-83
2021/06/02 12:56:18;;;;;;;3.03;1.45;;;21.00;50.00;;;;;;5113874;28;20181;-81
2021/06/02 12:58:59;;;;;;;2.25;1.48;;;21.00;51.20;;;;;;5112631;28;20178;-82
2021/06/02 13:01:31;;;;;;;3.53;1.50;;;21.10;52.30;;;;;;5113628;28;20163;-83
2021/06/02 13:03:59;;;;;;;3.88;1.30;;;21.30;52.50;;;;;;5112027;28;20564;-83
2021/06/02 13:06:27;;;;;;;3.65;1.58;;;21.30;51.70;;;;;;5112793;28;20188;-84
2021/06/02 13:08:53;;;;;;;4.63;1.40;;;21.30;52.80;;;;;;5111688;28;20200;-83
2021/06/02 13:11:22;;;;;;;5.93;1.92;;;21.20;52.20;;;;;;5110566;28;20222;-83
2021/06/02 13:13:51;;;;;;;3.65;1.60;;;21.00;52.30;;;;;;5109598;28;20205;-82
2021/06/02 13:16:17;;;;;;;1.95;1.50;;;21.00;51.80;;;;;;5113366;28;20206;-83
2021/06/02 13:18:59;;;;;;;3.88;1.85;;;20.70;50.90;;;;;;5112351;28;20261;-82
2021/06/02 13:21:31;;;;;;;4.30;1.70;;;20.60;52.50;;;;;;5112083;28;20180;-82
2021/06/02 13:24:10;;;;;;;6.88;1.30;;;20.60;51.40;;;;;;5112935;28;20166;-83
2021/06/02 13:26:36;;;;;;;10.48;1.85;;;20.80;53.10;;;;;;5113124;28;20272;-83
2021/06/02 13:29:03;;;;;;;5.03;1.83;;;21.00;50.60;;;;;;5112787;28;20709;-84
2021/06/02 13:31:55;;;;;;;2.33;1.58;;;21.00;51.20;;;;;;5112922;28;20178;-82
2021/06/02 13:34:38;;;;;;;1.52;1.40;;;20.90;51.90;;;;;;5107106;28;20202;-84